New Tanegashima Airport
RJFG : now visible

Airfield :











YOU CAN JOIN US ON...

 
LOGIN :

Register | Disclaimer

   EN    FR    IT 

 









Legend :    VFR   Marginal VFR   IFR   Intensive IFR   Very Intensive IFR
Visi :
Ceiling :
>= 8 km
>= 3000ft
5 to 8 km
1000 to 3000 ft
1500m to 5 km
500 to 1000 ft
800 to 1500m
200 to 500 ft
< 800m
< 200 ft
Symbols :   Thunderstorms  Fog  Heavy snow  Heavy precipitations  Wind > 20 kt







- Airport Elevation : 768 ft
- IATA code : TNE


RJFG - New Tanegashima

CURRENT METAR :
  • 210100Z VRB03KT 9999 FEW030 SCT160 BKN/// 20/16 Q1013

EXPIRED METARs :
  • 210000Z 06005KT 010V120 9999 FEW030 BKN/// 21/16 Q1013
  • 202330Z 08004KT 360V140 9999 FEW030 BKN/// 20/15 Q1013
  • 202310Z 09003KT 050V130 CAVOK 20/15 Q1013 RMK A2992

TAF N/A
RJJJ FIR / Asia



MET'MAP, your aeronautical weather chart ! - Copyright ORBIFLY December 2007 - Disclaimer

ORBIFLY MET'MAP TEAM :

Programming & Development : Alexandra Zaïnal
Concept & Development : Baudouin d'Aumeries
Co-Development & Prog : Marc-Olivier Méhu
Technical & hardware support : Manuel Goepfert

Contact : metmap@orbifly.com




SOURCES & CREDITS :

   NOAA       Earth
Advisory